Time;durP1;ratioP1;P1;durP2;ratioP2;P2;SDS_P1;SDS_P2;PMS_P1;PMS_P2;Temp;Humidity;BMP_temperature;BMP_pressure;BME280_temperature;BME280_humidity;BME280_pressure;Samples;Min_cycle;Max_cycle;Signal;HPM_P1;HPM_P2
2022/05/13 00:01:54;;;;;;;13.77;12.40;;;17.20;99.90;;;;;;5058676;28;20560;-83
2022/05/13 00:04:21;;;;;;;12.93;11.73;;;17.30;99.90;;;;;;5048587;28;20452;-83
2022/05/13 00:06:47;;;;;;;12.17;10.83;;;17.40;99.90;;;;;;5051319;28;20443;-83
2022/05/13 00:09:14;;;;;;;14.40;13.20;;;17.30;99.90;;;;;;5049004;28;20854;-82
2022/05/13 00:11:41;;;;;;;13.40;12.20;;;17.20;99.90;;;;;;5052601;28;20455;-82
2022/05/13 00:14:10;;;;;;;13.23;11.90;;;17.30;99.90;;;;;;5050187;28;20457;-82
2022/05/13 00:16:37;;;;;;;15.77;14.27;;;17.30;99.90;;;;;;5052769;28;20462;-83
2022/05/13 00:19:05;;;;;;;13.10;12.00;;;17.20;99.90;;;;;;5055055;28;20471;-82
2022/05/13 00:21:33;;;;;;;14.80;13.50;;;17.30;99.90;;;;;;5027724;28;20519;-83
2022/05/13 00:23:59;;;;;;;13.77;12.47;;;17.40;99.90;;;;;;5019335;28;20452;-82
2022/05/13 00:26:26;;;;;;;12.20;11.20;;;17.50;99.90;;;;;;5032353;28;20458;-82
2022/05/13 00:28:53;;;;;;;12.53;11.43;;;17.40;99.90;;;;;;5052355;28;20477;-82
2022/05/13 00:31:22;;;;;;;11.90;10.80;;;17.40;99.90;;;;;;5039652;28;20818;-82
2022/05/13 00:33:49;;;;;;;13.27;12.10;;;17.40;99.90;;;;;;5019211;28;21012;-82
2022/05/13 00:36:16;;;;;;;14.10;12.80;;;17.40;99.90;;;;;;5042075;28;20513;-82
2022/05/13 00:38:42;;;;;;;11.83;10.83;;;17.40;99.90;;;;;;5053760;28;20474;-82
2022/05/13 00:41:09;;;;;;;12.67;11.37;;;17.30;99.90;;;;;;5046539;28;20447;-82
2022/05/13 00:43:54;;;;;;;13.07;11.97;;;17.30;99.90;;;;;;5058975;28;20505;-82
2022/05/13 00:46:23;;;;;;;12.60;11.40;;;17.50;99.90;;;;;;5057130;28;20808;-82
2022/05/13 00:48:51;;;;;;;12.70;11.80;;;17.50;99.90;;;;;;5047111;28;20467;-82
2022/05/13 00:51:19;;;;;;;14.30;12.73;;;17.50;99.90;;;;;;5050229;28;20956;-82
2022/05/13 00:53:47;;;;;;;12.70;11.60;;;17.40;99.90;;;;;;5031018;28;20450;-82
2022/05/13 00:56:14;;;;;;;12.97;11.67;;;17.50;99.90;;;;;;5049380;28;20459;-82
2022/05/13 00:58:44;;;;;;;12.43;11.40;;;17.50;99.90;;;;;;5052410;28;20475;-82
2022/05/13 01:01:11;;;;;;;12.53;11.47;;;17.50;99.90;;;;;;5052084;28;20452;-82
2022/05/13 01:03:39;;;;;;;11.90;11.00;;;17.50;99.90;;;;;;5048902;28;20463;-82
2022/05/13 01:06:10;;;;;;;12.57;11.37;;;17.60;99.90;;;;;;5048072;28;20467;-82
2022/05/13 01:08:37;;;;;;;12.60;11.57;;;17.40;99.90;;;;;;5058662;28;20472;-82
2022/05/13 01:11:16;;;;;;;13.10;11.80;;;17.50;99.90;;;;;;5057703;28;20470;-82
2022/05/13 01:13:44;;;;;;;12.63;11.43;;;17.20;99.90;;;;;;5041670;28;20459;-82
2022/05/13 01:16:11;;;;;;;12.30;11.23;;;17.20;99.90;;;;;;5049896;28;20466;-82
2022/05/13 01:18:40;;;;;;;11.50;10.40;;;17.20;99.90;;;;;;5038801;28;20479;-82
2022/05/13 01:21:08;;;;;;;14.23;12.90;;;17.20;99.90;;;;;;5037959;28;20452;-82
2022/05/13 01:23:41;;;;;;;12.60;11.60;;;17.20;99.90;;;;;;5037934;28;20498;-82
2022/05/13 01:26:10;;;;;;;13.37;12.10;;;17.10;99.90;;;;;;5037822;28;20514;-82
2022/05/13 01:28:39;;;;;;;14.30;13.10;;;17.10;99.90;;;;;;5038478;28;20471;-82
2022/05/13 01:31:11;;;;;;;14.07;12.80;;;17.10;99.90;;;;;;5037945;28;20513;-82
2022/05/13 01:33:39;;;;;;;15.17;13.80;;;17.20;99.90;;;;;;5037943;28;20832;-82
2022/05/13 01:36:09;;;;;;;13.87;12.57;;;17.30;99.90;;;;;;5037408;28;20462;-82
2022/05/13 01:38:39;;;;;;;14.00;12.90;;;17.40;99.90;;;;;;5037399;28;20468;-82
2022/05/13 01:41:07;;;;;;;14.10;12.80;;;17.50;99.90;;;;;;5037152;28;20829;-81
2022/05/13 01:43:36;;;;;;;13.00;11.77;;;17.50;99.90;;;;;;5038380;28;20492;-82
2022/05/13 01:46:03;;;;;;;13.23;12.13;;;17.50;99.90;;;;;;5042079;28;20461;-82
2022/05/13 01:48:30;;;;;;;14.00;12.73;;;17.50;99.90;;;;;;5046586;28;20509;-81
2022/05/13 01:50:57;;;;;;;13.20;12.03;;;17.50;99.90;;;;;;5043087;28;20453;-81
2022/05/13 01:53:24;;;;;;;14.67;13.33;;;17.30;99.90;;;;;;5055465;28;20450;-82
2022/05/13 01:55:52;;;;;;;15.40;13.80;;;17.20;99.90;;;;;;5038398;28;20466;-82
2022/05/13 01:58:23;;;;;;;16.03;14.63;;;17.30;99.90;;;;;;5038535;28;20630;-82
2022/05/13 02:06:18;;;;;;;17.20;15.40;;;16.30;99.90;;;;;;5056587;28;20452;-83
2022/05/13 02:08:47;;;;;;;20.47;16.30;;;16.40;99.90;;;;;;5111531;23;20493;-84
2022/05/13 02:35:15;;;;;;;14.87;13.37;;;16.10;99.90;;;;;;4927349;29;20436;-83
2022/05/13 02:37:42;;;;;;;12.53;11.23;;;16.10;99.90;;;;;;4976349;28;20470;-86
2022/05/13 02:40:11;;;;;;;15.73;12.83;;;16.10;99.90;;;;;;5031763;28;20519;-85
2022/05/13 02:42:37;;;;;;;13.27;11.90;;;16.00;99.90;;;;;;5032035;28;20532;-85
2022/05/13 02:45:05;;;;;;;11.63;10.53;;;16.00;99.90;;;;;;5065234;28;20881;-85
2022/05/13 02:47:32;;;;;;;13.90;11.67;;;16.10;99.90;;;;;;5075501;28;20476;-85
2022/05/13 02:52:44;;;;;;;14.23;12.93;;;16.20;99.90;;;;;;5093593;28;20423;-85
2022/05/13 02:55:11;;;;;;;13.67;12.47;;;16.30;99.90;;;;;;5083463;28;20473;-85
2022/05/13 02:57:38;;;;;;;16.43;13.57;;;16.30;99.90;;;;;;5073319;28;20529;-84
2022/05/13 03:00:07;;;;;;;15.67;12.70;;;16.40;99.90;;;;;;5075934;28;20478;-85
2022/05/13 03:02:34;;;;;;;15.50;12.53;;;16.40;99.90;;;;;;5083197;28;20492;-85
2022/05/13 03:05:01;;;;;;;14.80;11.93;;;16.50;99.90;;;;;;5092388;28;20499;-85
2022/05/13 03:07:27;;;;;;;15.10;13.23;;;16.50;99.90;;;;;;5076737;28;20449;-84
2022/05/13 03:09:56;;;;;;;15.27;13.70;;;16.30;99.90;;;;;;5085157;28;20479;-85
2022/05/13 03:12:22;;;;;;;15.93;14.37;;;16.20;99.90;;;;;;5093178;28;20422;-84
2022/05/13 03:14:49;;;;;;;16.20;14.70;;;16.40;99.90;;;;;;5077045;28;20452;-85
2022/05/13 03:17:16;;;;;;;14.17;12.77;;;16.40;99.90;;;;;;5077972;28;20506;-85
2022/05/13 03:19:43;;;;;;;13.63;12.23;;;16.50;99.90;;;;;;5094005;28;20479;-84
2022/05/13 03:22:10;;;;;;;14.97;13.47;;;16.50;99.90;;;;;;5095052;28;20490;-84
2022/05/13 03:24:36;;;;;;;15.90;14.50;;;16.60;99.90;;;;;;5086722;28;20478;-84
2022/05/13 03:27:07;;;;;;;15.60;13.67;;;16.60;99.90;;;;;;5085733;28;20460;-84
2022/05/13 03:29:35;;;;;;;14.70;13.10;;;16.70;99.90;;;;;;5095098;28;20465;-84
2022/05/13 03:32:02;;;;;;;14.50;12.80;;;16.70;99.90;;;;;;5096317;28;20452;-84
2022/05/13 03:34:31;;;;;;;14.30;12.37;;;16.80;99.90;;;;;;5094697;28;20434;-84
2022/05/13 03:36:57;;;;;;;13.90;12.53;;;16.80;99.90;;;;;;5075547;28;20460;-84
2022/05/13 03:39:25;;;;;;;12.93;11.83;;;16.90;99.90;;;;;;5077801;28;20482;-84
2022/05/13 03:41:51;;;;;;;12.93;11.93;;;16.80;99.90;;;;;;5089973;28;20450;-84
2022/05/13 03:44:20;;;;;;;15.17;13.57;;;16.90;99.90;;;;;;5096613;28;20454;-84
2022/05/13 03:46:46;;;;;;;12.87;11.70;;;16.90;99.90;;;;;;5092487;28;20897;-83
2022/05/13 03:49:13;;;;;;;14.70;13.40;;;16.80;99.90;;;;;;5078737;28;20474;-84
2022/05/13 03:51:41;;;;;;;15.67;14.13;;;16.80;99.90;;;;;;5076752;28;20446;-83
2022/05/13 03:54:08;;;;;;;12.10;11.00;;;16.80;99.90;;;;;;5096583;28;20648;-84
2022/05/13 03:56:35;;;;;;;14.97;13.63;;;16.80;99.90;;;;;;5092599;28;20451;-84
2022/05/13 03:59:02;;;;;;;14.43;12.93;;;16.80;99.90;;;;;;5075345;28;20458;-84
2022/05/13 04:01:31;;;;;;;14.57;13.23;;;16.80;99.90;;;;;;5083546;28;20431;-84
2022/05/13 04:03:57;;;;;;;14.70;13.27;;;16.80;99.90;;;;;;5075735;28;20492;-84
2022/05/13 04:09:09;;;;;;;13.53;12.43;;;16.70;99.90;;;;;;5075724;28;20473;-84
2022/05/13 04:11:38;;;;;;;14.40;13.10;;;16.70;99.90;;;;;;5075049;28;20445;-84
2022/05/13 04:16:56;;;;;;;13.30;11.93;;;16.80;99.90;;;;;;5039188;28;20925;-83
2022/05/13 04:19:24;;;;;;;12.00;10.60;;;16.70;99.90;;;;;;5090825;28;20466;-83
2022/05/13 04:21:51;;;;;;;13.83;12.57;;;16.80;99.90;;;;;;5095243;28;20424;-84
2022/05/13 04:24:19;;;;;;;13.30;12.07;;;16.70;99.90;;;;;;5085507;28;20900;-84
2022/05/13 04:26:47;;;;;;;13.13;11.43;;;16.70;99.90;;;;;;5092826;28;20449;-84
2022/05/13 04:29:14;;;;;;;13.33;12.10;;;16.70;99.90;;;;;;5090192;28;20474;-84
2022/05/13 04:31:43;;;;;;;11.87;10.63;;;16.70;99.90;;;;;;5095554;28;20521;-83
2022/05/13 04:34:11;;;;;;;12.33;11.07;;;16.60;99.90;;;;;;5079315;28;20505;-83
2022/05/13 04:36:38;;;;;;;11.13;10.03;;;16.50;99.90;;;;;;5075418;28;20450;-84
2022/05/13 04:39:06;;;;;;;12.47;11.27;;;16.50;99.90;;;;;;5087968;28;20474;-84
2022/05/13 04:44:18;;;;;;;11.00;10.00;;;16.40;99.90;;;;;;5076644;28;20508;-84
2022/05/13 04:46:45;;;;;;;12.30;11.20;;;16.40;99.90;;;;;;5090846;28;20453;-83
2022/05/13 04:49:13;;;;;;;12.10;10.97;;;16.50;99.90;;;;;;5075730;28;20474;-83
2022/05/13 04:51:40;;;;;;;12.47;11.13;;;16.50;99.90;;;;;;5094467;28;20459;-83
2022/05/13 04:54:08;;;;;;;13.90;12.57;;;16.50;99.90;;;;;;5095067;28;20525;-83
2022/05/13 04:56:35;;;;;;;11.93;10.73;;;16.60;99.90;;;;;;5076930;28;20462;-83
2022/05/13 04:59:02;;;;;;;12.73;11.20;;;16.50;99.90;;;;;;5082744;28;20504;-83
2022/05/13 05:01:29;;;;;;;13.20;12.00;;;16.60;99.90;;;;;;5074547;28;20446;-83
2022/05/13 05:03:55;;;;;;;12.43;11.43;;;16.50;99.90;;;;;;5090522;28;20484;-83
2022/05/13 05:06:24;;;;;;;12.20;11.10;;;16.50;99.90;;;;;;5093457;28;20450;-83
2022/05/13 05:08:52;;;;;;;12.83;11.50;;;16.50;99.90;;;;;;5093521;28;20482;-83
2022/05/13 05:11:20;;;;;;;13.20;12.00;;;16.40;99.90;;;;;;5080886;28;20500;-84
2022/05/13 05:13:50;;;;;;;16.83;15.30;;;16.50;99.90;;;;;;5074174;28;20443;-83
2022/05/13 05:16:19;;;;;;;13.73;12.53;;;16.40;99.90;;;;;;5076576;28;20453;-83
2022/05/13 05:18:45;;;;;;;14.67;13.17;;;16.30;99.90;;;;;;5074054;28;20568;-83
2022/05/13 05:21:13;;;;;;;14.13;12.57;;;16.40;99.90;;;;;;5089176;28;20445;-83
2022/05/13 05:23:43;;;;;;;15.27;13.80;;;16.30;99.90;;;;;;5072771;28;20493;-83
2022/05/13 05:26:11;;;;;;;13.70;12.30;;;16.30;99.90;;;;;;5073474;28;20482;-82
2022/05/13 05:28:38;;;;;;;15.03;12.37;;;16.40;99.90;;;;;;5073076;28;20465;-83
2022/05/13 05:31:05;;;;;;;14.57;13.27;;;16.50;99.90;;;;;;5086600;28;20456;-82
2022/05/13 05:33:32;;;;;;;11.40;10.50;;;16.60;99.90;;;;;;5079977;28;20446;-83
2022/05/13 05:35:59;;;;;;;14.30;12.80;;;16.70;99.90;;;;;;5092296;28;20528;-83
2022/05/13 05:38:26;;;;;;;12.67;11.43;;;16.80;99.90;;;;;;5080369;28;20476;-82
2022/05/13 05:40:55;;;;;;;12.90;11.60;;;16.90;99.90;;;;;;5092670;28;20452;-82
2022/05/13 05:43:22;;;;;;;13.10;11.90;;;17.00;99.90;;;;;;5079205;28;20464;-83
2022/05/13 05:45:50;;;;;;;12.60;11.57;;;17.10;99.90;;;;;;5084740;28;20541;-83
2022/05/13 05:48:21;;;;;;;13.47;10.80;;;17.10;99.90;;;;;;5081535;28;20481;-83
2022/05/13 05:50:49;;;;;;;13.27;11.97;;;17.10;99.90;;;;;;5071360;28;20447;-83
2022/05/13 05:57:13;;;;;;;10.80;9.80;;;17.20;99.90;;;;;;5075042;28;20468;-83
2022/05/13 05:58:51;;;;;;;10.80;9.80;;;17.20;99.90;;;;;;5083380;28;20492;-84
2022/05/13 06:01:17;;;;;;;12.33;11.20;;;17.30;99.90;;;;;;5083162;28;20522;-83
2022/05/13 06:03:44;;;;;;;11.00;9.87;;;17.30;99.90;;;;;;5091422;28;20487;-83
2022/05/13 06:06:12;;;;;;;10.23;9.20;;;17.30;99.90;;;;;;5090214;28;20449;-83
2022/05/13 06:08:39;;;;;;;11.20;10.07;;;17.30;99.90;;;;;;5090152;28;20470;-82
2022/05/13 06:11:07;;;;;;;10.83;9.73;;;17.30;99.90;;;;;;5089524;28;20529;-84
2022/05/13 06:13:34;;;;;;;14.60;10.13;;;17.20;99.90;;;;;;5070547;28;20458;-84
2022/05/13 06:16:01;;;;;;;9.43;8.50;;;17.00;99.90;;;;;;5071045;28;20457;-84
2022/05/13 06:18:28;;;;;;;9.90;8.90;;;16.60;99.90;;;;;;5081318;28;20501;-84
2022/05/13 06:20:55;;;;;;;11.30;9.73;;;16.40;99.90;;;;;;5085568;28;20479;-84
2022/05/13 06:23:21;;;;;;;11.17;9.00;;;16.30;99.90;;;;;;5077378;28;20487;-83
2022/05/13 06:25:48;;;;;;;12.07;8.73;;;16.40;99.90;;;;;;5072419;28;20449;-84
2022/05/13 06:28:16;;;;;;;11.57;9.10;;;16.40;99.90;;;;;;5088639;28;20469;-84
2022/05/13 06:30:43;;;;;;;9.50;8.70;;;16.50;99.90;;;;;;5083302;28;20480;-84
2022/05/13 06:33:10;;;;;;;9.10;7.33;;;16.70;99.90;;;;;;5082526;28;20455;-83
2022/05/13 06:35:38;;;;;;;10.77;9.63;;;16.80;99.90;;;;;;5078238;28;20446;-84
2022/05/13 06:38:05;;;;;;;8.33;7.50;;;16.60;99.90;;;;;;5080757;28;20492;-84
2022/05/13 06:40:33;;;;;;;9.47;7.23;;;16.50;99.90;;;;;;5078961;28;20450;-83
2022/05/13 06:43:00;;;;;;;6.87;6.17;;;16.50;99.90;;;;;;5070217;28;20458;-83
2022/05/13 06:45:28;;;;;;;8.07;7.07;;;16.50;99.90;;;;;;5068426;28;20464;-83
2022/05/13 06:47:55;;;;;;;6.90;6.33;;;16.30;99.90;;;;;;5069426;28;20449;-83
2022/05/13 06:50:22;;;;;;;7.00;6.30;;;16.20;99.90;;;;;;5084607;28;20454;-83
2022/05/13 06:52:49;;;;;;;8.23;7.17;;;16.20;99.90;;;;;;5084918;28;20431;-83
2022/05/13 06:55:20;;;;;;;7.20;5.77;;;16.40;99.90;;;;;;5065902;28;20445;-84
2022/05/13 06:57:47;;;;;;;5.57;5.17;;;16.60;99.90;;;;;;5068663;28;20446;-84
2022/05/13 07:00:14;;;;;;;5.60;4.50;;;16.50;99.90;;;;;;5084272;28;20564;-83
2022/05/13 07:02:43;;;;;;;5.80;5.30;;;16.30;99.90;;;;;;5069077;28;20450;-83
2022/05/13 07:05:12;;;;;;;5.10;4.47;;;16.30;99.90;;;;;;5069331;28;20507;-83
2022/05/13 07:07:39;;;;;;;7.03;4.63;;;16.40;99.90;;;;;;5069743;28;20450;-83
2022/05/13 07:10:07;;;;;;;5.50;5.10;;;16.30;99.90;;;;;;5069806;28;20472;-82
2022/05/13 07:12:33;;;;;;;7.17;5.60;;;16.20;99.90;;;;;;5071128;28;20548;-82
2022/05/13 07:15:02;;;;;;;7.13;5.47;;;16.30;99.90;;;;;;5074163;28;20453;-83
2022/05/13 07:17:29;;;;;;;4.90;4.50;;;16.50;99.90;;;;;;5074430;28;20449;-83
2022/05/13 07:19:57;;;;;;;7.23;6.53;;;16.70;99.90;;;;;;5076525;28;20478;-83
2022/05/13 07:22:24;;;;;;;5.93;4.60;;;16.80;99.90;;;;;;5078097;28;20448;-83
2022/05/13 07:24:52;;;;;;;7.83;5.37;;;16.90;99.90;;;;;;5077168;28;20500;-83
2022/05/13 07:27:18;;;;;;;5.53;5.07;;;16.90;99.90;;;;;;5073063;28;20443;-83
2022/05/13 07:29:45;;;;;;;7.97;6.97;;;17.00;99.90;;;;;;5068478;28;20512;-82
2022/05/13 07:32:12;;;;;;;6.10;5.60;;;17.00;99.90;;;;;;5075735;28;20471;-83
2022/05/13 07:34:39;;;;;;;6.77;5.90;;;17.00;99.90;;;;;;5074945;28;20922;-83
2022/05/13 07:37:07;;;;;;;6.70;6.00;;;16.90;99.90;;;;;;5074568;28;20459;-83
2022/05/13 07:42:19;;;;;;;6.07;5.37;;;17.10;99.90;;;;;;5071699;28;20437;-83
2022/05/13 07:44:45;;;;;;;5.93;5.43;;;17.20;99.90;;;;;;5065365;28;21025;-83
2022/05/13 07:47:12;;;;;;;9.23;5.70;;;17.30;99.90;;;;;;5066212;28;20451;-83
2022/05/13 07:49:42;;;;;;;6.33;5.73;;;17.40;99.90;;;;;;5078472;28;20470;-83
2022/05/13 07:52:11;;;;;;;7.20;5.40;;;17.40;99.90;;;;;;5086324;28;20963;-84
2022/05/13 07:54:38;;;;;;;5.07;4.70;;;17.10;99.90;;;;;;5082705;28;20453;-84
2022/05/13 07:57:05;;;;;;;8.17;5.27;;;16.80;99.90;;;;;;5084001;28;20450;-84
2022/05/13 08:02:48;;;;;;;7.70;5.30;;;16.50;99.90;;;;;;5021410;28;21234;-85
2022/05/13 08:05:20;;;;;;;10.67;5.87;;;16.40;99.90;;;;;;4999454;28;20492;-84
2022/05/13 08:07:48;;;;;;;6.40;5.77;;;16.30;99.90;;;;;;5012117;28;20451;-85
2022/05/13 08:10:15;;;;;;;10.17;5.87;;;16.30;99.90;;;;;;5018082;28;20787;-84
2022/05/13 08:12:44;;;;;;;4.83;4.43;;;16.40;99.90;;;;;;5018805;28;20892;-85
2022/05/13 08:15:21;;;;;;;5.77;4.77;;;16.60;99.90;;;;;;5017691;28;20452;-85
2022/05/13 08:17:48;;;;;;;4.93;4.43;;;16.70;99.90;;;;;;5017956;28;20515;-85
2022/05/13 08:20:37;;;;;;;5.17;4.77;;;16.90;99.90;;;;;;5017298;28;20439;-85
2022/05/13 08:23:06;;;;;;;5.47;4.60;;;16.80;99.90;;;;;;5017743;28;20493;-84
2022/05/13 08:25:33;;;;;;;5.57;4.93;;;17.00;99.90;;;;;;5013228;28;20484;-86
2022/05/13 08:28:01;;;;;;;4.13;3.70;;;17.20;99.90;;;;;;5019137;28;20456;-86
2022/05/13 08:30:28;;;;;;;3.83;3.43;;;17.30;99.90;;;;;;5017410;28;20834;-87
2022/05/13 08:32:56;;;;;;;3.73;3.53;;;17.30;99.90;;;;;;5020591;28;20997;-86
2022/05/13 08:35:23;;;;;;;5.13;4.00;;;17.40;99.90;;;;;;5020477;28;20457;-87
2022/05/13 08:37:52;;;;;;;11.10;5.00;;;17.40;99.90;;;;;;5018338;28;20445;-87
2022/05/13 08:40:47;;;;;;;9.53;4.43;;;17.60;99.90;;;;;;5018925;28;20453;-87
2022/05/13 08:43:18;;;;;;;6.90;4.37;;;17.70;99.90;;;;;;5020347;28;20473;-87
2022/05/13 08:45:52;;;;;;;3.87;3.00;;;17.90;99.90;;;;;;5019612;28;20458;-86
2022/05/13 08:48:25;;;;;;;5.33;3.70;;;18.10;99.90;;;;;;5020586;28;20480;-86
2022/05/13 08:50:58;;;;;;;4.30;4.00;;;18.10;99.90;;;;;;5019510;28;20486;-87
2022/05/13 08:53:32;;;;;;;4.97;4.03;;;17.90;99.90;;;;;;5018736;28;20461;-86
2022/05/13 08:56:04;;;;;;;4.23;3.40;;;17.70;99.90;;;;;;5017116;28;20461;-85
2022/05/13 08:58:36;;;;;;;3.83;3.43;;;17.70;99.90;;;;;;5011635;28;20486;-85
2022/05/13 09:01:09;;;;;;;8.40;4.27;;;17.50;99.90;;;;;;5017540;28;20464;-86
2022/05/13 09:03:40;;;;;;;4.67;3.70;;;17.40;99.90;;;;;;5018417;28;20481;-88
2022/05/13 09:06:12;;;;;;;6.10;5.30;;;17.30;99.90;;;;;;5013988;28;20450;-86
2022/05/13 09:08:39;;;;;;;3.83;3.53;;;17.20;99.90;;;;;;4998692;28;20844;-86
2022/05/13 09:11:24;;;;;;;3.67;3.37;;;17.40;99.90;;;;;;4999307;28;20451;-87
2022/05/13 09:14:00;;;;;;;3.87;3.57;;;17.60;99.90;;;;;;4996981;28;20462;-86
2022/05/13 09:16:40;;;;;;;5.07;4.50;;;17.70;99.90;;;;;;5002040;28;20474;-86
2022/05/13 09:19:14;;;;;;;3.97;3.17;;;17.90;99.90;;;;;;5016598;28;20487;-85
2022/05/13 09:21:43;;;;;;;3.83;2.73;;;18.00;99.90;;;;;;5017906;28;20471;-87
2022/05/13 09:24:10;;;;;;;3.87;3.47;;;18.10;99.90;;;;;;5016649;28;21120;-86
2022/05/13 09:26:38;;;;;;;7.47;3.87;;;18.20;99.90;;;;;;5018823;28;20457;-87
2022/05/13 09:29:08;;;;;;;5.13;3.23;;;18.20;99.90;;;;;;5021104;28;20500;-87
2022/05/13 09:31:38;;;;;;;4.67;3.37;;;18.20;99.90;;;;;;5021120;28;20449;-87
2022/05/13 09:34:15;;;;;;;7.80;3.70;;;18.30;99.90;;;;;;5020117;28;20458;-87
2022/05/13 09:36:42;;;;;;;3.93;3.07;;;18.50;99.90;;;;;;5020435;28;20437;-86
2022/05/13 09:39:23;;;;;;;3.77;3.23;;;18.50;99.90;;;;;;5021865;28;20485;-88
2022/05/13 09:41:53;;;;;;;7.17;4.03;;;18.30;99.90;;;;;;5019820;28;20453;-86
2022/05/13 09:44:22;;;;;;;5.10;3.37;;;18.20;99.90;;;;;;5019377;28;20485;-85
2022/05/13 09:46:51;;;;;;;6.33;3.73;;;18.00;99.90;;;;;;5017955;28;20856;-86
2022/05/13 09:49:27;;;;;;;6.80;4.23;;;17.90;99.90;;;;;;5018351;28;20468;-86
2022/05/13 09:51:56;;;;;;;4.43;3.20;;;17.90;99.90;;;;;;5018236;28;20422;-86
2022/05/13 09:54:27;;;;;;;4.53;4.10;;;18.10;99.90;;;;;;5018352;28;20438;-87
2022/05/13 09:57:07;;;;;;;4.03;3.63;;;18.10;99.90;;;;;;5016420;28;20473;-87
2022/05/13 09:59:38;;;;;;;4.57;3.10;;;18.10;99.90;;;;;;5014745;28;20479;-86
2022/05/13 10:02:52;;;;;;;5.27;3.43;;;18.00;99.90;;;;;;5015375;28;20473;-88
2022/05/13 10:05:38;;;;;;;4.17;2.83;;;18.00;99.90;;;;;;5006448;28;20488;-88
2022/05/13 10:08:08;;;;;;;4.27;4.07;;;18.10;99.90;;;;;;5018914;28;21043;-86
2022/05/13 10:16:15;;;;;;;6.50;3.40;;;18.00;99.90;;;;;;5017484;28;20423;-86
2022/05/13 10:18:49;;;;;;;5.20;3.37;;;18.20;99.90;;;;;;5017963;28;20514;-84
2022/05/13 10:21:20;;;;;;;3.90;3.60;;;18.20;99.90;;;;;;5017485;28;20442;-87
2022/05/13 10:23:56;;;;;;;3.73;3.03;;;18.20;99.90;;;;;;5017362;28;20456;-86
2022/05/13 10:26:28;;;;;;;6.60;3.67;;;18.30;99.90;;;;;;4998180;28;20469;-86
2022/05/13 10:29:04;;;;;;;6.40;3.53;;;18.40;99.90;;;;;;5003461;28;20489;-86
2022/05/13 10:31:35;;;;;;;4.03;3.07;;;18.50;99.90;;;;;;5018127;28;20977;-84
2022/05/13 10:34:06;;;;;;;4.53;3.50;;;18.60;99.90;;;;;;5020959;28;20469;-85
2022/05/13 10:36:42;;;;;;;3.20;2.70;;;18.90;99.90;;;;;;5019809;28;20464;-86
2022/05/13 10:39:15;;;;;;;14.20;3.60;;;19.20;99.90;;;;;;5020355;28;21040;-86
2022/05/13 10:41:46;;;;;;;2.83;2.40;;;19.40;99.90;;;;;;5021597;28;20520;-86
2022/05/13 10:44:21;;;;;;;3.97;3.47;;;19.60;99.90;;;;;;5021083;28;20487;-86
2022/05/13 10:46:51;;;;;;;7.87;4.30;;;19.70;99.00;;;;;;5019516;28;20719;-87
2022/05/13 10:49:19;;;;;;;3.77;3.47;;;19.90;99.70;;;;;;5018093;28;20476;-87
2022/05/13 10:51:54;;;;;;;2.73;2.50;;;20.00;99.80;;;;;;5017659;28;20520;-86
2022/05/13 10:54:34;;;;;;;3.13;2.93;;;20.10;97.50;;;;;;5017641;28;20441;-86
2022/05/13 10:57:12;;;;;;;3.47;3.17;;;19.80;98.20;;;;;;5018821;28;20452;-86
2022/05/13 10:59:56;;;;;;;3.07;2.83;;;19.50;99.70;;;;;;5017981;28;20466;-86
2022/05/13 11:02:49;;;;;;;3.60;3.30;;;19.40;99.90;;;;;;5016853;28;20455;-86
2022/05/13 11:05:31;;;;;;;2.80;2.60;;;19.40;99.00;;;;;;5016804;28;21059;-86
2022/05/13 11:08:06;;;;;;;4.00;3.53;;;19.40;99.60;;;;;;5017242;28;20453;-86
2022/05/13 11:10:40;;;;;;;5.60;2.93;;;19.40;99.20;;;;;;5016790;28;20448;-87
2022/05/13 11:13:19;;;;;;;3.63;3.33;;;19.30;99.60;;;;;;5017565;28;20533;-86
2022/05/13 11:15:54;;;;;;;5.40;3.70;;;19.40;99.20;;;;;;5017702;28;20446;-86
2022/05/13 11:18:32;;;;;;;4.47;4.20;;;19.30;99.90;;;;;;5016903;28;20470;-86
2022/05/13 11:21:08;;;;;;;3.77;3.40;;;19.10;99.60;;;;;;5020431;28;20442;-86
2022/05/13 11:25:54;;;;;;;3.53;3.23;;;19.00;99.90;;;;;;5023163;28;20521;-86
2022/05/13 11:26:39;;;;;;;5.40;5.00;;;19.00;99.80;;;;;;5021955;28;20493;-86
2022/05/13 11:29:09;;;;;;;6.07;5.57;;;19.20;99.90;;;;;;5020958;28;20467;-86
2022/05/13 11:32:14;;;;;;;4.37;3.43;;;19.50;99.80;;;;;;5021020;28;20541;-86
2022/05/13 11:35:04;;;;;;;5.03;3.90;;;19.80;99.80;;;;;;5020500;28;20446;-87
2022/05/13 11:37:37;;;;;;;7.93;5.13;;;20.20;99.60;;;;;;5020231;28;20454;-86
2022/05/13 11:40:16;;;;;;;4.47;4.07;;;20.30;97.90;;;;;;5020039;28;20995;-86
2022/05/13 11:45:57;;;;;;;3.83;3.17;;;20.50;98.30;;;;;;5018319;28;20896;-86
2022/05/13 11:48:28;;;;;;;4.20;3.87;;;20.50;97.20;;;;;;5018844;28;20483;-86
2022/05/13 11:51:03;;;;;;;3.67;3.40;;;20.60;98.10;;;;;;5018717;28;20458;-86
2022/05/13 11:53:52;;;;;;;4.07;3.67;;;20.20;97.90;;;;;;5020087;28;20450;-86
2022/05/13 11:56:34;;;;;;;6.73;4.67;;;19.90;97.80;;;;;;5019778;28;20816;-86
2022/05/13 11:59:02;;;;;;;3.60;3.30;;;19.60;98.40;;;;;;5017326;28;20505;-86
2022/05/13 12:01:53;;;;;;;5.90;4.20;;;19.80;98.50;;;;;;5018210;28;20458;-86
2022/05/13 12:04:32;;;;;;;4.77;4.37;;;20.20;98.10;;;;;;5020061;28;20450;-86
2022/05/13 12:07:17;;;;;;;4.10;3.80;;;20.20;98.40;;;;;;5019874;28;20464;-86
2022/05/13 12:09:47;;;;;;;4.43;4.13;;;20.50;98.00;;;;;;5022287;28;20825;-85
2022/05/13 12:12:22;;;;;;;5.67;4.20;;;20.80;97.70;;;;;;5023876;28;20452;-86
2022/05/13 12:14:56;;;;;;;7.13;3.93;;;21.10;97.90;;;;;;5017993;28;20448;-86
2022/05/13 12:17:33;;;;;;;4.73;3.87;;;21.80;95.90;;;;;;5017925;28;20535;-85
2022/05/13 12:20:07;;;;;;;4.27;3.87;;;22.30;96.20;;;;;;5017292;28;20458;-85
2022/05/13 12:22:48;;;;;;;4.13;3.73;;;22.40;94.80;;;;;;5017481;28;20469;-86
2022/05/13 12:25:52;;;;;;;4.20;3.80;;;22.40;94.20;;;;;;5017733;28;20486;-86
2022/05/13 12:28:26;;;;;;;5.53;4.70;;;22.40;94.00;;;;;;5017528;28;20473;-86
2022/05/13 12:30:53;;;;;;;4.40;3.80;;;22.20;94.30;;;;;;5017058;28;20849;-86
2022/05/13 12:33:36;;;;;;;4.60;4.20;;;22.60;94.60;;;;;;5016782;28;20476;-86
2022/05/13 12:39:14;;;;;;;3.90;3.60;;;23.30;92.60;;;;;;5016770;28;20869;-86
2022/05/13 12:41:53;;;;;;;4.83;3.60;;;23.20;92.80;;;;;;5016143;28;20457;-86
2022/05/13 12:44:27;;;;;;;3.87;3.57;;;23.70;91.60;;;;;;5016315;28;20979;-86
2022/05/13 12:47:22;;;;;;;4.43;4.03;;;23.70;91.00;;;;;;5015847;28;20489;-86
2022/05/13 12:50:01;;;;;;;4.10;3.80;;;23.30;90.70;;;;;;5016408;28;20482;-85
2022/05/13 12:52:38;;;;;;;5.37;4.30;;;22.90;91.30;;;;;;5016546;28;20452;-86
2022/05/13 12:55:12;;;;;;;5.53;4.93;;;22.50;93.60;;;;;;5016279;28;20456;-86
2022/05/13 12:57:42;;;;;;;3.70;3.47;;;22.70;93.60;;;;;;5016626;28;20543;-86
2022/05/13 13:00:11;;;;;;;7.17;5.13;;;22.40;93.10;;;;;;5016232;28;20469;-86
2022/05/13 13:02:40;;;;;;;5.17;4.00;;;22.60;93.40;;;;;;5016153;28;20455;-86
2022/05/13 13:05:11;;;;;;;3.50;3.23;;;22.70;92.00;;;;;;5016426;28;21007;-86
2022/05/13 13:07:38;;;;;;;7.07;5.23;;;22.50;92.80;;;;;;5016105;28;20442;-86
2022/05/13 13:10:10;;;;;;;3.97;3.57;;;22.80;92.40;;;;;;5016089;28;20569;-86
2022/05/13 13:12:41;;;;;;;6.77;3.77;;;22.90;91.90;;;;;;5016100;28;20453;-86
2022/05/13 13:15:13;;;;;;;3.40;2.80;;;22.80;91.90;;;;;;5016098;28;20450;-86
2022/05/13 13:17:44;;;;;;;4.87;3.77;;;23.30;91.00;;;;;;5015401;28;20465;-86
2022/05/13 13:20:14;;;;;;;2.97;2.70;;;23.30;90.30;;;;;;5015725;28;20460;-86
2022/05/13 13:22:43;;;;;;;3.70;3.30;;;23.90;87.30;;;;;;5015578;28;20462;-86
2022/05/13 13:25:24;;;;;;;3.77;2.67;;;24.50;85.70;;;;;;5015725;28;20493;-86
2022/05/13 13:27:52;;;;;;;3.40;3.10;;;25.00;81.30;;;;;;5015251;28;20509;-86
2022/05/13 13:30:22;;;;;;;3.90;3.60;;;25.10;79.80;;;;;;5015267;28;20456;-86
2022/05/13 13:32:50;;;;;;;4.00;3.00;;;25.20;81.00;;;;;;5015789;28;20449;-85
2022/05/13 13:35:29;;;;;;;3.20;2.90;;;25.40;78.50;;;;;;5015763;28;20531;-86
2022/05/13 13:37:57;;;;;;;2.67;2.47;;;26.10;73.90;;;;;;5015057;28;20826;-86
2022/05/13 13:40:31;;;;;;;2.53;2.33;;;26.30;73.70;;;;;;5014629;28;20462;-86
2022/05/13 13:43:09;;;;;;;4.23;3.00;;;25.60;73.50;;;;;;5015629;28;20807;-86
2022/05/13 13:45:36;;;;;;;3.03;2.80;;;26.10;73.10;;;;;;5016587;28;21014;-86
2022/05/13 13:48:10;;;;;;;4.03;2.57;;;26.60;71.60;;;;;;5015228;28;20477;-86
2022/05/13 13:50:45;;;;;;;2.87;2.60;;;27.30;71.40;;;;;;5014453;28;20505;-86
2022/05/13 13:53:12;;;;;;;3.63;3.33;;;27.20;68.10;;;;;;5014933;28;20510;-86
2022/05/13 13:55:41;;;;;;;2.27;2.17;;;27.10;66.70;;;;;;5014695;28;20839;-86
2022/05/13 13:58:24;;;;;;;4.77;2.57;;;27.70;66.50;;;;;;5014588;28;20482;-86